sensor_id;sensor_type;location;lat;lon;timestamp;temperature;humidity
9323;DHT22;4700;48.822;9.270;2023-04-06T00:02:20;1.40;1.00
9323;DHT22;4700;48.822;9.270;2023-04-06T00:07:54;1.20;1.00
9323;DHT22;4700;48.822;9.270;2023-04-06T00:10:40;1.20;1.00
9323;DHT22;4700;48.822;9.270;2023-04-06T00:13:26;1.10;1.00
9323;DHT22;4700;48.822;9.270;2023-04-06T00:16:12;1.00;1.00
9323;DHT22;4700;48.822;9.270;2023-04-06T00:18:58;1.00;1.00
9323;DHT22;4700;48.822;9.270;2023-04-06T00:21:45;1.00;1.00
9323;DHT22;4700;48.822;9.270;2023-04-06T00:24:31;0.90;1.00
9323;DHT22;4700;48.822;9.270;2023-04-06T00:27:17;0.90;1.00
9323;DHT22;4700;48.822;9.270;2023-04-06T00:30:03;0.90;1.00
9323;DHT22;4700;48.822;9.270;2023-04-06T00:32:50;0.80;1.00
9323;DHT22;4700;48.822;9.270;2023-04-06T00:35:36;0.80;1.00
9323;DHT22;4700;48.822;9.270;2023-04-06T00:38:25;0.80;1.00
9323;DHT22;4700;48.822;9.270;2023-04-06T00:43:56;0.70;1.00
9323;DHT22;4700;48.822;9.270;2023-04-06T00:46:42;0.80;1.00
9323;DHT22;4700;48.822;9.270;2023-04-06T00:49:32;0.80;1.00
9323;DHT22;4700;48.822;9.270;2023-04-06T00:52:18;0.80;1.00
9323;DHT22;4700;48.822;9.270;2023-04-06T00:55:06;0.80;1.00
9323;DHT22;4700;48.822;9.270;2023-04-06T00:57:52;0.70;1.00
9323;DHT22;4700;48.822;9.270;2023-04-06T01:00:38;0.70;1.00
9323;DHT22;4700;48.822;9.270;2023-04-06T01:03:24;0.70;1.00
9323;DHT22;4700;48.822;9.270;2023-04-06T01:06:10;0.60;1.00
9323;DHT22;4700;48.822;9.270;2023-04-06T01:08:56;0.60;1.00
9323;DHT22;4700;48.822;9.270;2023-04-06T01:11:44;0.50;1.00
9323;DHT22;4700;48.822;9.270;2023-04-06T01:14:29;0.50;1.00
9323;DHT22;4700;48.822;9.270;2023-04-06T01:17:15;0.40;1.00
9323;DHT22;4700;48.822;9.270;2023-04-06T01:20:06;0.60;1.00
9323;DHT22;4700;48.822;9.270;2023-04-06T01:25:39;0.30;1.00
9323;DHT22;4700;48.822;9.270;2023-04-06T01:28:25;0.30;1.00
9323;DHT22;4700;48.822;9.270;2023-04-06T01:31:12;0.40;1.00
9323;DHT22;4700;48.822;9.270;2023-04-06T01:33:57;0.30;1.00
9323;DHT22;4700;48.822;9.270;2023-04-06T01:36:43;0.30;1.00
9323;DHT22;4700;48.822;9.270;2023-04-06T01:39:31;0.30;1.00
9323;DHT22;4700;48.822;9.270;2023-04-06T01:42:19;0.30;1.00
9323;DHT22;4700;48.822;9.270;2023-04-06T01:45:06;0.20;1.00
9323;DHT22;4700;48.822;9.270;2023-04-06T01:47:52;0.20;1.00
9323;DHT22;4700;48.822;9.270;2023-04-06T01:50:38;0.10;1.00
9323;DHT22;4700;48.822;9.270;2023-04-06T01:53:24;0.10;1.00
9323;DHT22;4700;48.822;9.270;2023-04-06T01:56:11;0.10;1.00
9323;DHT22;4700;48.822;9.270;2023-04-06T01:58:57;0.10;1.00
9323;DHT22;4700;48.822;9.270;2023-04-06T02:01:43;0.10;1.00
9323;DHT22;4700;48.822;9.270;2023-04-06T02:04:29;0.10;1.00
9323;DHT22;4700;48.822;9.270;2023-04-06T02:07:15;0.10;1.00
9323;DHT22;4700;48.822;9.270;2023-04-06T02:10:01;0.10;1.00
9323;DHT22;4700;48.822;9.270;2023-04-06T02:12:49;0.10;1.00
9323;DHT22;4700;48.822;9.270;2023-04-06T02:15:35;0.10;1.00
9323;DHT22;4700;48.822;9.270;2023-04-06T02:18:21;0.10;1.00
9323;DHT22;4700;48.822;9.270;2023-04-06T02:21:07;0.10;1.00
9323;DHT22;4700;48.822;9.270;2023-04-06T02:23:53;0.10;1.00
9323;DHT22;4700;48.822;9.270;2023-04-06T02:26:39;0.10;1.00
9323;DHT22;4700;48.822;9.270;2023-04-06T02:29:26;0.10;1.00
9323;DHT22;4700;48.822;9.270;2023-04-06T02:32:12;0.00;1.00
9323;DHT22;4700;48.822;9.270;2023-04-06T02:34:58;0.00;1.00
9323;DHT22;4700;48.822;9.270;2023-04-06T02:37:44;0.00;1.00
9323;DHT22;4700;48.822;9.270;2023-04-06T02:40:30;0.00;1.00
9323;DHT22;4700;48.822;9.270;2023-04-06T02:43:16;-0.10;1.00
9323;DHT22;4700;48.822;9.270;2023-04-06T02:46:03;-0.20;1.00
9323;DHT22;4700;48.822;9.270;2023-04-06T02:48:49;-0.20;1.00
9323;DHT22;4700;48.822;9.270;2023-04-06T02:51:35;-0.30;1.00
9323;DHT22;4700;48.822;9.270;2023-04-06T02:54:21;-0.30;1.00
9323;DHT22;4700;48.822;9.270;2023-04-06T02:57:07;-0.30;1.00
9323;DHT22;4700;48.822;9.270;2023-04-06T02:59:53;-0.40;1.00
9323;DHT22;4700;48.822;9.270;2023-04-06T03:02:41;-0.40;1.00
9323;DHT22;4700;48.822;9.270;2023-04-06T03:05:27;-0.40;1.00
9323;DHT22;4700;48.822;9.270;2023-04-06T03:08:13;-0.40;1.00
9323;DHT22;4700;48.822;9.270;2023-04-06T03:10:59;-0.40;1.00
9323;DHT22;4700;48.822;9.270;2023-04-06T03:13:45;-0.40;1.00
9323;DHT22;4700;48.822;9.270;2023-04-06T03:16:31;-0.40;1.00
9323;DHT22;4700;48.822;9.270;2023-04-06T03:19:18;-0.50;1.00
9323;DHT22;4700;48.822;9.270;2023-04-06T03:22:04;-0.50;1.00
9323;DHT22;4700;48.822;9.270;2023-04-06T03:24:50;-0.40;1.00
9323;DHT22;4700;48.822;9.270;2023-04-06T03:27:36;-0.50;1.00
9323;DHT22;4700;48.822;9.270;2023-04-06T03:30:22;-0.50;1.00
9323;DHT22;4700;48.822;9.270;2023-04-06T03:33:08;-0.50;1.00
9323;DHT22;4700;48.822;9.270;2023-04-06T03:35:55;-0.60;1.00
9323;DHT22;4700;48.822;9.270;2023-04-06T03:38:41;-0.60;1.00
9323;DHT22;4700;48.822;9.270;2023-04-06T03:41:27;-0.60;1.00
9323;DHT22;4700;48.822;9.270;2023-04-06T03:44:13;-0.60;1.00
9323;DHT22;4700;48.822;9.270;2023-04-06T03:46:59;-0.60;1.00
9323;DHT22;4700;48.822;9.270;2023-04-06T03:49:45;-0.70;1.00
9323;DHT22;4700;48.822;9.270;2023-04-06T03:52:33;-0.60;1.00
9323;DHT22;4700;48.822;9.270;2023-04-06T03:55:18;-0.50;1.00
9323;DHT22;4700;48.822;9.270;2023-04-06T03:58:05;-0.50;1.00
9323;DHT22;4700;48.822;9.270;2023-04-06T04:00:51;-0.50;1.00
9323;DHT22;4700;48.822;9.270;2023-04-06T04:03:37;-0.50;1.00
9323;DHT22;4700;48.822;9.270;2023-04-06T04:06:23;-0.50;1.00
9323;DHT22;4700;48.822;9.270;2023-04-06T04:09:11;-0.60;1.00
9323;DHT22;4700;48.822;9.270;2023-04-06T04:11:57;-0.60;1.00
9323;DHT22;4700;48.822;9.270;2023-04-06T04:14:43;-0.60;1.00
9323;DHT22;4700;48.822;9.270;2023-04-06T04:17:29;-0.70;1.00
9323;DHT22;4700;48.822;9.270;2023-04-06T04:20:15;-0.70;1.00
9323;DHT22;4700;48.822;9.270;2023-04-06T04:23:01;-0.70;1.00
9323;DHT22;4700;48.822;9.270;2023-04-06T04:25:48;-0.80;1.00
9323;DHT22;4700;48.822;9.270;2023-04-06T04:28:38;-0.80;1.00
9323;DHT22;4700;48.822;9.270;2023-04-06T04:31:23;-0.80;1.00
9323;DHT22;4700;48.822;9.270;2023-04-06T04:34:09;-0.70;1.00
9323;DHT22;4700;48.822;9.270;2023-04-06T04:36:55;-0.70;1.00
9323;DHT22;4700;48.822;9.270;2023-04-06T04:39:44;-0.70;1.00
9323;DHT22;4700;48.822;9.270;2023-04-06T04:42:31;-0.70;1.00
9323;DHT22;4700;48.822;9.270;2023-04-06T04:45:18;-0.70;1.00
9323;DHT22;4700;48.822;9.270;2023-04-06T04:48:04;-0.70;1.00
9323;DHT22;4700;48.822;9.270;2023-04-06T04:50:52;-0.70;1.00
9323;DHT22;4700;48.822;9.270;2023-04-06T04:53:32;-0.60;1.00
9323;DHT22;4700;48.822;9.270;2023-04-06T04:56:18;-0.60;1.00
9323;DHT22;4700;48.822;9.270;2023-04-06T05:01:54;-0.60;1.00
9323;DHT22;4700;48.822;9.270;2023-04-06T05:04:43;-0.60;1.00
9323;DHT22;4700;48.822;9.270;2023-04-06T05:07:29;-0.50;1.00
9323;DHT22;4700;48.822;9.270;2023-04-06T05:10:15;-0.70;1.00
9323;DHT22;4700;48.822;9.270;2023-04-06T05:13:02;-0.50;1.00
9323;DHT22;4700;48.822;9.270;2023-04-06T05:15:49;-0.50;1.00
9323;DHT22;4700;48.822;9.270;2023-04-06T05:18:35;-0.60;1.00
9323;DHT22;4700;48.822;9.270;2023-04-06T05:21:21;-0.50;1.00
9323;DHT22;4700;48.822;9.270;2023-04-06T05:24:09;-0.40;1.00
9323;DHT22;4700;48.822;9.270;2023-04-06T05:26:55;-0.40;1.00
9323;DHT22;4700;48.822;9.270;2023-04-06T05:29:41;-0.40;1.00
9323;DHT22;4700;48.822;9.270;2023-04-06T05:38:01;-0.20;1.00
9323;DHT22;4700;48.822;9.270;2023-04-06T05:40:47;-0.20;1.00
9323;DHT22;4700;48.822;9.270;2023-04-06T05:43:33;-0.10;1.00
9323;DHT22;4700;48.822;9.270;2023-04-06T05:46:20;-0.10;1.00
9323;DHT22;4700;48.822;9.270;2023-04-06T05:49:07;0.30;1.00
9323;DHT22;4700;48.822;9.270;2023-04-06T05:51:56;0.70;1.00
9323;DHT22;4700;48.822;9.270;2023-04-06T05:54:42;0.80;1.00
9323;DHT22;4700;48.822;9.270;2023-04-06T05:57:29;0.80;1.00
9323;DHT22;4700;48.822;9.270;2023-04-06T06:00:15;0.70;1.00
9323;DHT22;4700;48.822;9.270;2023-04-06T06:03:04;0.70;1.00
9323;DHT22;4700;48.822;9.270;2023-04-06T06:05:51;0.70;1.00
9323;DHT22;4700;48.822;9.270;2023-04-06T06:08:37;0.80;1.00
9323;DHT22;4700;48.822;9.270;2023-04-06T06:14:12;0.90;1.00
9323;DHT22;4700;48.822;9.270;2023-04-06T06:16:58;1.50;1.00
9323;DHT22;4700;48.822;9.270;2023-04-06T06:19:44;1.10;1.00
9323;DHT22;4700;48.822;9.270;2023-04-06T06:22:31;1.20;1.00
9323;DHT22;4700;48.822;9.270;2023-04-06T06:25:17;1.20;1.00
9323;DHT22;4700;48.822;9.270;2023-04-06T06:28:03;1.30;1.00
9323;DHT22;4700;48.822;9.270;2023-04-06T06:30:49;1.50;1.00
9323;DHT22;4700;48.822;9.270;2023-04-06T06:33:35;1.60;1.00
9323;DHT22;4700;48.822;9.270;2023-04-06T06:36:26;1.80;1.00
9323;DHT22;4700;48.822;9.270;2023-04-06T06:39:13;2.00;1.00
9323;DHT22;4700;48.822;9.270;2023-04-06T06:41:59;2.10;1.00
9323;DHT22;4700;48.822;9.270;2023-04-06T06:44:46;2.30;1.00
9323;DHT22;4700;48.822;9.270;2023-04-06T06:47:32;2.40;1.00
9323;DHT22;4700;48.822;9.270;2023-04-06T06:50:18;2.70;1.00
9323;DHT22;4700;48.822;9.270;2023-04-06T06:53:04;2.70;1.00
9323;DHT22;4700;48.822;9.270;2023-04-06T06:55:51;2.90;1.00
9323;DHT22;4700;48.822;9.270;2023-04-06T06:58:37;3.00;1.00
9323;DHT22;4700;48.822;9.270;2023-04-06T07:01:23;3.40;1.00
9323;DHT22;4700;48.822;9.270;2023-04-06T07:06:57;5.70;1.00
9323;DHT22;4700;48.822;9.270;2023-04-06T07:09:44;8.70;1.00
9323;DHT22;4700;48.822;9.270;2023-04-06T07:12:31;11.40;1.00
9323;DHT22;4700;48.822;9.270;2023-04-06T07:15:17;13.60;1.00
9323;DHT22;4700;48.822;9.270;2023-04-06T07:18:03;15.80;1.00
9323;DHT22;4700;48.822;9.270;2023-04-06T07:20:49;17.00;1.00
9323;DHT22;4700;48.822;9.270;2023-04-06T07:23:34;18.10;1.00
9323;DHT22;4700;48.822;9.270;2023-04-06T07:26:20;19.10;1.00
9323;DHT22;4700;48.822;9.270;2023-04-06T07:29:08;17.20;1.00
9323;DHT22;4700;48.822;9.270;2023-04-06T07:31:54;17.30;1.00
9323;DHT22;4700;48.822;9.270;2023-04-06T07:34:42;18.10;1.00
9323;DHT22;4700;48.822;9.270;2023-04-06T07:37:29;18.70;1.00
9323;DHT22;4700;48.822;9.270;2023-04-06T07:40:15;19.20;1.00
9323;DHT22;4700;48.822;9.270;2023-04-06T07:43:01;22.40;1.00
9323;DHT22;4700;48.822;9.270;2023-04-06T07:45:49;22.50;1.00
9323;DHT22;4700;48.822;9.270;2023-04-06T07:48:34;22.40;1.00
9323;DHT22;4700;48.822;9.270;2023-04-06T07:51:21;22.20;1.00
9323;DHT22;4700;48.822;9.270;2023-04-06T07:54:09;24.50;1.00
9323;DHT22;4700;48.822;9.270;2023-04-06T07:56:58;23.20;1.00
9323;DHT22;4700;48.822;9.270;2023-04-06T07:59:44;26.20;1.00
9323;DHT22;4700;48.822;9.270;2023-04-06T08:02:33;26.00;1.00
9323;DHT22;4700;48.822;9.270;2023-04-06T08:05:19;27.10;1.00
9323;DHT22;4700;48.822;9.270;2023-04-06T08:08:07;28.00;1.00
9323;DHT22;4700;48.822;9.270;2023-04-06T08:10:54;29.00;1.00
9323;DHT22;4700;48.822;9.270;2023-04-06T08:13:41;29.70;1.00
9323;DHT22;4700;48.822;9.270;2023-04-06T08:16:27;29.40;1.00
9323;DHT22;4700;48.822;9.270;2023-04-06T08:19:14;30.40;1.00
9323;DHT22;4700;48.822;9.270;2023-04-06T08:22:01;30.90;1.00
9323;DHT22;4700;48.822;9.270;2023-04-06T08:24:48;31.20;1.00
9323;DHT22;4700;48.822;9.270;2023-04-06T08:27:34;30.30;1.00
9323;DHT22;4700;48.822;9.270;2023-04-06T08:30:19;29.80;1.00
9323;DHT22;4700;48.822;9.270;2023-04-06T08:33:06;29.70;1.00
9323;DHT22;4700;48.822;9.270;2023-04-06T08:35:55;30.50;1.00
9323;DHT22;4700;48.822;9.270;2023-04-06T08:38:41;31.40;1.00
9323;DHT22;4700;48.822;9.270;2023-04-06T08:41:28;30.20;1.00
9323;DHT22;4700;48.822;9.270;2023-04-06T08:44:14;29.60;1.00
9323;DHT22;4700;48.822;9.270;2023-04-06T08:47:00;28.50;1.00
9323;DHT22;4700;48.822;9.270;2023-04-06T08:49:47;28.40;1.00
9323;DHT22;4700;48.822;9.270;2023-04-06T08:52:38;29.80;1.00
9323;DHT22;4700;48.822;9.270;2023-04-06T08:55:26;29.90;1.00
9323;DHT22;4700;48.822;9.270;2023-04-06T08:58:12;30.30;1.00
9323;DHT22;4700;48.822;9.270;2023-04-06T09:00:58;30.70;1.00
9323;DHT22;4700;48.822;9.270;2023-04-06T09:03:46;30.30;99.90
9323;DHT22;4700;48.822;9.270;2023-04-06T09:06:34;28.90;99.90
9323;DHT22;4700;48.822;9.270;2023-04-06T09:09:22;28.40;99.90
9323;DHT22;4700;48.822;9.270;2023-04-06T09:12:09;27.70;1.00
9323;DHT22;4700;48.822;9.270;2023-04-06T09:14:58;28.50;99.90
9323;DHT22;4700;48.822;9.270;2023-04-06T09:17:44;26.50;1.00
9323;DHT22;4700;48.822;9.270;2023-04-06T09:20:30;25.50;1.00
9323;DHT22;4700;48.822;9.270;2023-04-06T09:23:19;24.30;1.00
9323;DHT22;4700;48.822;9.270;2023-04-06T09:26:09;23.80;1.00
9323;DHT22;4700;48.822;9.270;2023-04-06T09:28:56;24.50;99.90
9323;DHT22;4700;48.822;9.270;2023-04-06T09:31:42;27.80;99.90
9323;DHT22;4700;48.822;9.270;2023-04-06T09:34:28;30.90;99.90
9323;DHT22;4700;48.822;9.270;2023-04-06T09:37:15;27.40;99.90
9323;DHT22;4700;48.822;9.270;2023-04-06T09:40:03;28.30;99.90
9323;DHT22;4700;48.822;9.270;2023-04-06T09:42:51;27.10;99.90
9323;DHT22;4700;48.822;9.270;2023-04-06T09:45:39;23.20;99.90
9323;DHT22;4700;48.822;9.270;2023-04-06T09:48:25;19.30;1.00
9323;DHT22;4700;48.822;9.270;2023-04-06T09:51:16;17.30;1.00
9323;DHT22;4700;48.822;9.270;2023-04-06T09:54:04;15.90;1.00
9323;DHT22;4700;48.822;9.270;2023-04-06T09:56:58;16.20;1.00
9323;DHT22;4700;48.822;9.270;2023-04-06T10:00:01;15.70;1.00
9323;DHT22;4700;48.822;9.270;2023-04-06T10:02:58;15.60;1.00
9323;DHT22;4700;48.822;9.270;2023-04-06T10:05:49;14.60;1.00
9323;DHT22;4700;48.822;9.270;2023-04-06T10:08:39;13.80;1.00
9323;DHT22;4700;48.822;9.270;2023-04-06T10:11:26;14.00;1.00
9323;DHT22;4700;48.822;9.270;2023-04-06T10:14:12;14.00;1.00
9323;DHT22;4700;48.822;9.270;2023-04-06T10:16:59;13.90;1.00
9323;DHT22;4700;48.822;9.270;2023-04-06T10:19:51;13.80;1.00
9323;DHT22;4700;48.822;9.270;2023-04-06T10:22:43;13.30;1.00
9323;DHT22;4700;48.822;9.270;2023-04-06T10:28:22;13.40;1.00
9323;DHT22;4700;48.822;9.270;2023-04-06T10:31:08;12.90;1.00
9323;DHT22;4700;48.822;9.270;2023-04-06T10:33:57;12.50;1.00
9323;DHT22;4700;48.822;9.270;2023-04-06T10:36:45;12.10;1.00
9323;DHT22;4700;48.822;9.270;2023-04-06T10:39:31;12.40;1.00
9323;DHT22;4700;48.822;9.270;2023-04-06T10:42:16;12.70;1.00
9323;DHT22;4700;48.822;9.270;2023-04-06T10:45:05;12.70;1.00
9323;DHT22;4700;48.822;9.270;2023-04-06T10:47:53;12.80;1.00
9323;DHT22;4700;48.822;9.270;2023-04-06T10:50:42;13.00;1.00
9323;DHT22;4700;48.822;9.270;2023-04-06T10:53:29;12.90;1.00
9323;DHT22;4700;48.822;9.270;2023-04-06T10:56:16;12.90;1.00
9323;DHT22;4700;48.822;9.270;2023-04-06T10:59:02;12.70;1.00
9323;DHT22;4700;48.822;9.270;2023-04-06T11:01:48;12.70;1.00
9323;DHT22;4700;48.822;9.270;2023-04-06T11:04:34;12.50;1.00
9323;DHT22;4700;48.822;9.270;2023-04-06T11:07:24;12.40;1.00
9323;DHT22;4700;48.822;9.270;2023-04-06T11:12:57;12.20;1.00
9323;DHT22;4700;48.822;9.270;2023-04-06T11:15:43;12.20;1.00
9323;DHT22;4700;48.822;9.270;2023-04-06T11:18:28;12.10;1.00
9323;DHT22;4700;48.822;9.270;2023-04-06T11:21:15;12.00;1.00
9323;DHT22;4700;48.822;9.270;2023-04-06T11:24:06;11.80;1.00
9323;DHT22;4700;48.822;9.270;2023-04-06T11:26:56;11.50;1.00
9323;DHT22;4700;48.822;9.270;2023-04-06T11:29:43;12.10;1.00
9323;DHT22;4700;48.822;9.270;2023-04-06T11:32:39;13.00;1.00
9323;DHT22;4700;48.822;9.270;2023-04-06T11:35:26;15.10;1.00
9323;DHT22;4700;48.822;9.270;2023-04-06T11:38:12;12.60;1.00
9323;DHT22;4700;48.822;9.270;2023-04-06T11:41:01;12.50;1.00
9323;DHT22;4700;48.822;9.270;2023-04-06T11:43:47;12.50;1.00
9323;DHT22;4700;48.822;9.270;2023-04-06T11:46:33;12.30;1.00
9323;DHT22;4700;48.822;9.270;2023-04-06T11:49:19;12.40;1.00
9323;DHT22;4700;48.822;9.270;2023-04-06T11:52:15;11.80;1.00
9323;DHT22;4700;48.822;9.270;2023-04-06T11:54:58;11.90;1.00
9323;DHT22;4700;48.822;9.270;2023-04-06T11:57:56;11.90;1.00
9323;DHT22;4700;48.822;9.270;2023-04-06T12:00:43;11.90;1.00
9323;DHT22;4700;48.822;9.270;2023-04-06T12:03:31;11.90;1.00
9323;DHT22;4700;48.822;9.270;2023-04-06T12:06:17;12.00;1.00
9323;DHT22;4700;48.822;9.270;2023-04-06T12:09:03;12.20;1.00
9323;DHT22;4700;48.822;9.270;2023-04-06T12:11:49;12.30;1.00
9323;DHT22;4700;48.822;9.270;2023-04-06T12:14:37;12.60;1.00
9323;DHT22;4700;48.822;9.270;2023-04-06T12:17:23;12.70;1.00
9323;DHT22;4700;48.822;9.270;2023-04-06T12:20:10;13.10;1.00
9323;DHT22;4700;48.822;9.270;2023-04-06T12:22:59;13.40;1.00
9323;DHT22;4700;48.822;9.270;2023-04-06T12:25:44;13.40;1.00
9323;DHT22;4700;48.822;9.270;2023-04-06T12:28:30;13.10;1.00
9323;DHT22;4700;48.822;9.270;2023-04-06T12:31:19;13.10;1.00
9323;DHT22;4700;48.822;9.270;2023-04-06T12:34:05;13.00;1.00
9323;DHT22;4700;48.822;9.270;2023-04-06T12:36:51;13.20;1.00
9323;DHT22;4700;48.822;9.270;2023-04-06T12:39:37;14.30;1.00
9323;DHT22;4700;48.822;9.270;2023-04-06T12:42:23;13.50;1.00
9323;DHT22;4700;48.822;9.270;2023-04-06T12:45:10;13.30;1.00
9323;DHT22;4700;48.822;9.270;2023-04-06T12:47:57;13.50;1.00
9323;DHT22;4700;48.822;9.270;2023-04-06T12:50:44;13.50;1.00
9323;DHT22;4700;48.822;9.270;2023-04-06T12:53:30;13.60;1.00
9323;DHT22;4700;48.822;9.270;2023-04-06T12:56:17;13.60;1.00
9323;DHT22;4700;48.822;9.270;2023-04-06T12:59:03;12.70;1.00
9323;DHT22;4700;48.822;9.270;2023-04-06T13:01:49;13.50;1.00
9323;DHT22;4700;48.822;9.270;2023-04-06T13:04:38;13.20;1.00
9323;DHT22;4700;48.822;9.270;2023-04-06T13:07:23;13.20;1.00
9323;DHT22;4700;48.822;9.270;2023-04-06T13:10:09;13.00;1.00
9323;DHT22;4700;48.822;9.270;2023-04-06T13:12:55;13.10;1.00
9323;DHT22;4700;48.822;9.270;2023-04-06T13:15:41;13.10;1.00
9323;DHT22;4700;48.822;9.270;2023-04-06T13:18:27;13.30;1.00
9323;DHT22;4700;48.822;9.270;2023-04-06T13:21:15;13.50;1.00
9323;DHT22;4700;48.822;9.270;2023-04-06T13:24:01;13.60;1.00
9323;DHT22;4700;48.822;9.270;2023-04-06T13:26:47;13.50;1.00
9323;DHT22;4700;48.822;9.270;2023-04-06T13:29:33;13.40;1.00
9323;DHT22;4700;48.822;9.270;2023-04-06T13:32:20;13.10;1.00
9323;DHT22;4700;48.822;9.270;2023-04-06T13:35:06;13.10;1.00
9323;DHT22;4700;48.822;9.270;2023-04-06T13:37:53;13.30;1.00
9323;DHT22;4700;48.822;9.270;2023-04-06T13:40:39;17.50;1.00
9323;DHT22;4700;48.822;9.270;2023-04-06T13:43:26;13.30;1.00
9323;DHT22;4700;48.822;9.270;2023-04-06T13:46:11;13.20;1.00
9323;DHT22;4700;48.822;9.270;2023-04-06T13:48:58;13.40;1.00
9323;DHT22;4700;48.822;9.270;2023-04-06T13:51:44;13.30;1.00
9323;DHT22;4700;48.822;9.270;2023-04-06T13:54:31;13.50;1.00
9323;DHT22;4700;48.822;9.270;2023-04-06T13:57:16;13.70;1.00
9323;DHT22;4700;48.822;9.270;2023-04-06T14:00:03;13.90;1.00
9323;DHT22;4700;48.822;9.270;2023-04-06T14:02:49;13.80;1.00
9323;DHT22;4700;48.822;9.270;2023-04-06T14:05:35;13.70;1.00
9323;DHT22;4700;48.822;9.270;2023-04-06T14:08:20;13.60;1.00
9323;DHT22;4700;48.822;9.270;2023-04-06T14:11:11;13.70;1.00
9323;DHT22;4700;48.822;9.270;2023-04-06T14:13:57;13.80;1.00
9323;DHT22;4700;48.822;9.270;2023-04-06T14:16:43;14.30;1.00
9323;DHT22;4700;48.822;9.270;2023-04-06T14:19:29;14.50;1.00
9323;DHT22;4700;48.822;9.270;2023-04-06T14:22:17;14.70;1.00
9323;DHT22;4700;48.822;9.270;2023-04-06T14:25:03;14.70;1.00
9323;DHT22;4700;48.822;9.270;2023-04-06T14:27:50;14.90;1.00
9323;DHT22;4700;48.822;9.270;2023-04-06T14:30:36;15.20;99.90
9323;DHT22;4700;48.822;9.270;2023-04-06T14:33:22;15.00;1.00
9323;DHT22;4700;48.822;9.270;2023-04-06T14:36:08;15.40;1.00
9323;DHT22;4700;48.822;9.270;2023-04-06T14:38:54;15.30;1.00
9323;DHT22;4700;48.822;9.270;2023-04-06T14:41:40;14.60;1.00
9323;DHT22;4700;48.822;9.270;2023-04-06T14:44:27;15.00;1.00
9323;DHT22;4700;48.822;9.270;2023-04-06T14:47:15;15.20;1.00
9323;DHT22;4700;48.822;9.270;2023-04-06T14:50:05;15.30;1.00
9323;DHT22;4700;48.822;9.270;2023-04-06T14:52:51;15.40;99.90
9323;DHT22;4700;48.822;9.270;2023-04-06T14:55:31;15.30;99.90
9323;DHT22;4700;48.822;9.270;2023-04-06T14:58:18;15.10;1.00
9323;DHT22;4700;48.822;9.270;2023-04-06T15:03:53;15.20;99.90
9323;DHT22;4700;48.822;9.270;2023-04-06T15:06:38;15.30;1.00
9323;DHT22;4700;48.822;9.270;2023-04-06T15:09:24;15.00;99.90
9323;DHT22;4700;48.822;9.270;2023-04-06T15:12:10;14.70;1.00
9323;DHT22;4700;48.822;9.270;2023-04-06T15:14:55;14.70;1.00
9323;DHT22;4700;48.822;9.270;2023-04-06T15:17:42;14.80;1.00
9323;DHT22;4700;48.822;9.270;2023-04-06T15:20:28;14.00;99.90
9323;DHT22;4700;48.822;9.270;2023-04-06T15:23:14;14.00;1.00
9323;DHT22;4700;48.822;9.270;2023-04-06T15:26:01;14.20;1.00
9323;DHT22;4700;48.822;9.270;2023-04-06T15:28:46;14.40;99.90
9323;DHT22;4700;48.822;9.270;2023-04-06T15:31:32;14.40;1.00
9323;DHT22;4700;48.822;9.270;2023-04-06T15:34:20;14.20;1.00
9323;DHT22;4700;48.822;9.270;2023-04-06T15:37:06;14.30;99.90
9323;DHT22;4700;48.822;9.270;2023-04-06T15:42:38;14.70;99.90
9323;DHT22;4700;48.822;9.270;2023-04-06T15:45:26;14.70;1.00
9323;DHT22;4700;48.822;9.270;2023-04-06T15:48:12;14.80;1.00
9323;DHT22;4700;48.822;9.270;2023-04-06T15:50:59;14.60;1.00
9323;DHT22;4700;48.822;9.270;2023-04-06T15:53:45;14.50;99.90
9323;DHT22;4700;48.822;9.270;2023-04-06T15:56:31;14.50;1.00
9323;DHT22;4700;48.822;9.270;2023-04-06T15:59:17;14.60;1.00
9323;DHT22;4700;48.822;9.270;2023-04-06T16:02:03;14.40;1.00
9323;DHT22;4700;48.822;9.270;2023-04-06T16:04:49;14.30;99.90
9323;DHT22;4700;48.822;9.270;2023-04-06T16:07:40;14.40;1.00
9323;DHT22;4700;48.822;9.270;2023-04-06T16:10:26;14.30;1.00
9323;DHT22;4700;48.822;9.270;2023-04-06T16:13:12;14.10;1.00
9323;DHT22;4700;48.822;9.270;2023-04-06T16:16:01;13.30;99.90
9323;DHT22;4700;48.822;9.270;2023-04-06T16:18:47;14.20;99.90
9323;DHT22;4700;48.822;9.270;2023-04-06T16:21:33;14.30;99.90
9323;DHT22;4700;48.822;9.270;2023-04-06T16:24:20;14.30;1.00
9323;DHT22;4700;48.822;9.270;2023-04-06T16:27:06;14.30;99.90
9323;DHT22;4700;48.822;9.270;2023-04-06T16:29:52;14.20;1.00
9323;DHT22;4700;48.822;9.270;2023-04-06T16:32:38;14.10;1.00
9323;DHT22;4700;48.822;9.270;2023-04-06T16:35:24;14.10;1.00
9323;DHT22;4700;48.822;9.270;2023-04-06T16:38:10;14.00;1.00
9323;DHT22;4700;48.822;9.270;2023-04-06T16:43:46;13.90;99.90
9323;DHT22;4700;48.822;9.270;2023-04-06T16:46:33;13.70;1.00
9323;DHT22;4700;48.822;9.270;2023-04-06T16:49:19;13.60;1.00
9323;DHT22;4700;48.822;9.270;2023-04-06T16:52:05;13.50;1.00
9323;DHT22;4700;48.822;9.270;2023-04-06T16:54:50;13.40;1.00
9323;DHT22;4700;48.822;9.270;2023-04-06T16:57:37;13.40;1.00
9323;DHT22;4700;48.822;9.270;2023-04-06T17:00:23;13.30;1.00
9323;DHT22;4700;48.822;9.270;2023-04-06T17:03:09;13.10;1.00
9323;DHT22;4700;48.822;9.270;2023-04-06T17:05:55;13.10;1.00
9323;DHT22;4700;48.822;9.270;2023-04-06T17:08:40;12.90;1.00
9323;DHT22;4700;48.822;9.270;2023-04-06T17:11:26;12.90;1.00
9323;DHT22;4700;48.822;9.270;2023-04-06T17:14:14;12.80;1.00
9323;DHT22;4700;48.822;9.270;2023-04-06T17:17:03;12.70;1.00
9323;DHT22;4700;48.822;9.270;2023-04-06T17:19:48;12.60;1.00
9323;DHT22;4700;48.822;9.270;2023-04-06T17:22:34;12.50;1.00
9323;DHT22;4700;48.822;9.270;2023-04-06T17:25:20;12.40;1.00
9323;DHT22;4700;48.822;9.270;2023-04-06T17:28:06;12.30;1.00
9323;DHT22;4700;48.822;9.270;2023-04-06T17:33:40;12.00;1.00
9323;DHT22;4700;48.822;9.270;2023-04-06T17:36:26;11.90;1.00
9323;DHT22;4700;48.822;9.270;2023-04-06T17:39:12;11.70;1.00
9323;DHT22;4700;48.822;9.270;2023-04-06T17:41:58;11.70;1.00
9323;DHT22;4700;48.822;9.270;2023-04-06T17:44:47;11.60;1.00
9323;DHT22;4700;48.822;9.270;2023-04-06T17:47:34;11.50;1.00
9323;DHT22;4700;48.822;9.270;2023-04-06T17:50:20;11.50;1.00
9323;DHT22;4700;48.822;9.270;2023-04-06T17:53:05;11.40;1.00
9323;DHT22;4700;48.822;9.270;2023-04-06T17:55:52;11.30;1.00
9323;DHT22;4700;48.822;9.270;2023-04-06T17:58:38;11.20;1.00
9323;DHT22;4700;48.822;9.270;2023-04-06T18:01:23;11.20;1.00
9323;DHT22;4700;48.822;9.270;2023-04-06T18:04:10;11.20;1.00
9323;DHT22;4700;48.822;9.270;2023-04-06T18:06:56;11.20;1.00
9323;DHT22;4700;48.822;9.270;2023-04-06T18:09:42;11.20;1.00
9323;DHT22;4700;48.822;9.270;2023-04-06T18:12:28;11.20;1.00
9323;DHT22;4700;48.822;9.270;2023-04-06T18:15:14;11.10;1.00
9323;DHT22;4700;48.822;9.270;2023-04-06T18:18:00;11.10;1.00
9323;DHT22;4700;48.822;9.270;2023-04-06T18:20:47;11.10;1.00
9323;DHT22;4700;48.822;9.270;2023-04-06T18:23:33;11.10;1.00
9323;DHT22;4700;48.822;9.270;2023-04-06T18:26:23;11.00;1.00
9323;DHT22;4700;48.822;9.270;2023-04-06T18:29:09;11.00;1.00
9323;DHT22;4700;48.822;9.270;2023-04-06T18:31:55;10.90;1.00
9323;DHT22;4700;48.822;9.270;2023-04-06T18:34:40;10.90;1.00
9323;DHT22;4700;48.822;9.270;2023-04-06T18:37:27;10.90;1.00
9323;DHT22;4700;48.822;9.270;2023-04-06T18:40:32;10.90;1.00
9323;DHT22;4700;48.822;9.270;2023-04-06T18:43:17;10.90;1.00
9323;DHT22;4700;48.822;9.270;2023-04-06T18:48:49;10.90;1.00
9323;DHT22;4700;48.822;9.270;2023-04-06T18:51:35;10.90;1.00
9323;DHT22;4700;48.822;9.270;2023-04-06T18:54:22;10.90;1.00
9323;DHT22;4700;48.822;9.270;2023-04-06T18:57:08;10.90;1.00
9323;DHT22;4700;48.822;9.270;2023-04-06T19:02:40;10.80;1.00
9323;DHT22;4700;48.822;9.270;2023-04-06T19:05:25;10.30;1.00
9323;DHT22;4700;48.822;9.270;2023-04-06T19:08:11;10.70;1.00
9323;DHT22;4700;48.822;9.270;2023-04-06T19:11:04;10.70;1.00
9323;DHT22;4700;48.822;9.270;2023-04-06T19:13:50;10.70;1.00